createdAt,value
2018-05-31T00:01:02.242Z,11.80
2018-05-31T00:02:07.772Z,12.00
2018-05-31T00:03:13.273Z,11.50
2018-05-31T00:04:19.808Z,11.70
2018-05-31T00:05:24.319Z,11.10
2018-05-31T00:06:29.839Z,11.20
2018-05-31T00:07:35.361Z,11.70
2018-05-31T00:08:40.883Z,11.30
2018-05-31T00:09:46.470Z,12.40
2018-05-31T00:10:52.932Z,12.20
2018-05-31T00:11:57.451Z,11.80
2018-05-31T00:13:02.957Z,11.50
2018-05-31T00:14:08.468Z,12.10
2018-05-31T00:15:14.002Z,11.80
2018-05-31T00:16:19.517Z,11.30
2018-05-31T00:17:26.062Z,11.30
2018-05-31T00:18:30.541Z,11.40
2018-05-31T00:19:36.063Z,11.60
2018-05-31T00:20:41.593Z,10.90
2018-05-31T00:21:47.105Z,10.90
2018-05-31T00:22:52.629Z,10.90
2018-05-31T00:23:59.145Z,11.20
2018-05-31T00:25:03.721Z,11.40
2018-05-31T00:26:09.194Z,10.90
2018-05-31T00:27:14.711Z,11.50
2018-05-31T00:28:20.212Z,11.30
2018-05-31T00:29:25.748Z,10.70
2018-05-31T00:30:32.264Z,10.50
2018-05-31T00:31:36.780Z,10.60
2018-05-31T00:32:42.303Z,11.00
2018-05-31T00:33:47.842Z,10.70
2018-05-31T00:34:53.323Z,10.90
2018-05-31T00:35:58.854Z,10.30
2018-05-31T00:37:05.384Z,10.40
2018-05-31T00:38:09.900Z,11.30
2018-05-31T00:39:15.412Z,10.60
2018-05-31T00:40:20.926Z,10.90
2018-05-31T00:41:26.439Z,11.40
2018-05-31T00:42:32.015Z,11.30
2018-05-31T00:43:38.503Z,11.00
2018-05-31T00:44:42.999Z,11.50
2018-05-31T00:45:48.519Z,11.30
2018-05-31T00:46:54.033Z,11.70
2018-05-31T00:47:59.557Z,11.20
2018-05-31T00:49:05.076Z,11.20
2018-05-31T00:50:11.603Z,11.00
2018-05-31T00:51:16.117Z,11.00
2018-05-31T00:52:21.625Z,11.00
2018-05-31T00:53:27.153Z,11.00
2018-05-31T00:54:32.661Z,10.70
2018-05-31T00:55:38.182Z,11.00
2018-05-31T00:56:44.710Z,10.90
2018-05-31T00:57:49.237Z,11.10
2018-05-31T00:58:54.749Z,10.60
2018-05-31T01:00:00.256Z,10.50
2018-05-31T01:01:05.770Z,10.40
2018-05-31T01:02:11.304Z,11.00
2018-05-31T01:03:17.825Z,11.20
2018-05-31T01:04:22.306Z,11.30
2018-05-31T01:05:27.845Z,12.10
2018-05-31T01:06:33.372Z,12.10
2018-05-31T01:07:38.899Z,12.50
2018-05-31T01:08:44.405Z,11.90
2018-05-31T01:09:50.947Z,12.00
2018-05-31T01:10:55.449Z,12.20
2018-05-31T01:12:00.991Z,12.90
2018-05-31T01:13:06.478Z,12.80
2018-05-31T01:14:12.014Z,12.30
2018-05-31T01:15:17.516Z,11.50
2018-05-31T01:16:24.051Z,12.90
2018-05-31T01:17:28.550Z,12.90
2018-05-31T01:18:34.083Z,12.70
2018-05-31T01:19:39.601Z,13.30
2018-05-31T01:20:45.119Z,12.60
2018-05-31T01:21:50.628Z,13.30
2018-05-31T01:22:57.154Z,13.40
2018-05-31T01:24:01.654Z,12.70
2018-05-31T01:25:07.180Z,12.30
2018-05-31T01:26:12.706Z,12.80
2018-05-31T01:27:18.317Z,12.70
2018-05-31T01:28:23.746Z,12.30
2018-05-31T01:29:30.268Z,12.80
2018-05-31T01:30:34.782Z,12.10
2018-05-31T01:31:40.288Z,13.00
2018-05-31T01:32:45.813Z,12.30
2018-05-31T01:33:51.328Z,12.70
2018-05-31T01:34:56.862Z,12.00
2018-05-31T01:36:03.383Z,12.20
2018-05-31T01:37:07.884Z,13.00
2018-05-31T01:38:13.396Z,12.80
2018-05-31T01:39:18.938Z,12.30
2018-05-31T01:40:24.451Z,12.50
2018-05-31T01:41:29.961Z,12.80
2018-05-31T01:42:36.482Z,13.60
2018-05-31T01:43:40.999Z,13.10
2018-05-31T01:44:46.513Z,13.90
2018-05-31T01:45:52.035Z,13.70
2018-05-31T01:46:57.559Z,12.40
2018-05-31T01:48:03.077Z,12.50
2018-05-31T01:49:09.601Z,12.50
2018-05-31T01:50:14.101Z,12.00
2018-05-31T01:51:19.621Z,12.80
2018-05-31T01:52:25.138Z,12.40
2018-05-31T01:53:30.656Z,12.80
2018-05-31T01:54:36.209Z,12.80
2018-05-31T01:55:42.698Z,13.40
2018-05-31T01:56:47.207Z,13.10
2018-05-31T01:57:52.746Z,12.80
2018-05-31T01:58:58.259Z,13.00
2018-05-31T02:00:03.777Z,12.60
2018-05-31T02:01:09.288Z,12.90
2018-05-31T02:02:15.810Z,12.20
2018-05-31T02:03:20.326Z,12.50
2018-05-31T02:04:25.837Z,12.10
2018-05-31T02:05:31.348Z,12.10
2018-05-31T02:06:36.869Z,12.90
2018-05-31T02:07:42.396Z,13.00
2018-05-31T02:08:48.917Z,13.00
2018-05-31T02:09:53.439Z,13.20
2018-05-31T02:10:58.951Z,12.80
2018-05-31T02:12:04.474Z,12.90
2018-05-31T02:13:09.989Z,12.80
2018-05-31T02:14:15.498Z,13.10
2018-05-31T02:15:22.036Z,12.80
2018-05-31T02:16:26.535Z,13.00
2018-05-31T02:17:32.074Z,13.30
2018-05-31T02:18:37.574Z,13.00
2018-05-31T02:19:43.189Z,12.90
2018-05-31T02:20:48.614Z,13.10
2018-05-31T02:21:55.140Z,13.30
2018-05-31T02:22:59.638Z,13.20
2018-05-31T02:24:05.157Z,13.40
2018-05-31T02:25:10.688Z,14.90
2018-05-31T02:26:16.190Z,14.40
2018-05-31T02:27:21.719Z,14.00
2018-05-31T02:28:28.257Z,13.40
2018-05-31T02:29:32.745Z,13.10
2018-05-31T02:30:38.262Z,13.60
2018-05-31T02:31:43.783Z,13.50
2018-05-31T02:32:49.303Z,13.50
2018-05-31T02:33:54.815Z,14.20
2018-05-31T02:35:01.350Z,13.90
2018-05-31T02:36:05.866Z,14.30
2018-05-31T02:37:11.381Z,13.80
2018-05-31T02:38:16.900Z,13.90
2018-05-31T02:39:22.414Z,13.90
2018-05-31T02:40:27.933Z,14.10
2018-05-31T02:41:34.459Z,14.50
2018-05-31T02:42:38.966Z,14.40
2018-05-31T02:43:44.496Z,15.20
2018-05-31T02:44:50.001Z,14.50
2018-05-31T02:45:55.514Z,14.60
2018-05-31T02:47:01.030Z,15.00
2018-05-31T02:48:07.572Z,15.20
2018-05-31T02:49:12.085Z,14.70
2018-05-31T02:50:17.590Z,13.90
2018-05-31T02:51:23.107Z,14.00
2018-05-31T02:52:28.727Z,13.60
2018-05-31T02:53:34.144Z,15.10
2018-05-31T02:54:40.669Z,15.00
2018-05-31T02:55:45.180Z,14.80
2018-05-31T02:56:50.694Z,15.20
2018-05-31T02:57:56.204Z,15.10
2018-05-31T02:59:01.748Z,15.80
2018-05-31T03:00:07.252Z,16.00
2018-05-31T03:01:13.786Z,16.30
2018-05-31T03:02:18.306Z,16.40
2018-05-31T03:03:23.801Z,15.90
2018-05-31T03:04:29.316Z,14.30
2018-05-31T03:05:34.836Z,15.20
2018-05-31T03:06:40.358Z,15.60
2018-05-31T03:07:46.926Z,15.70
2018-05-31T03:08:51.391Z,15.90
2018-05-31T03:09:56.905Z,16.10
2018-05-31T03:11:02.434Z,15.40
2018-05-31T03:12:07.941Z,15.40
2018-05-31T03:13:13.476Z,14.90
2018-05-31T03:14:19.992Z,14.80
2018-05-31T03:15:24.488Z,15.30
2018-05-31T03:16:30.012Z,15.50
2018-05-31T03:17:35.551Z,15.10
2018-05-31T03:18:41.052Z,16.50
2018-05-31T03:19:46.570Z,15.20
2018-05-31T03:20:53.088Z,15.10
2018-05-31T03:21:57.604Z,17.30
2018-05-31T03:23:03.121Z,17.40
2018-05-31T03:24:08.633Z,16.70
2018-05-31T03:25:14.290Z,15.90
2018-05-31T03:26:19.683Z,16.90
2018-05-31T03:27:26.207Z,16.20
2018-05-31T03:28:30.711Z,15.20
2018-05-31T03:29:36.229Z,15.80
2018-05-31T03:30:41.747Z,15.60
2018-05-31T03:31:47.264Z,15.80
2018-05-31T03:32:52.791Z,16.20
2018-05-31T03:33:59.314Z,16.20
2018-05-31T03:35:03.810Z,16.30
2018-05-31T03:36:09.331Z,16.50
2018-05-31T03:37:14.847Z,15.50
2018-05-31T03:38:20.364Z,16.70
2018-05-31T03:39:26.495Z,16.40
2018-05-31T03:40:32.414Z,16.40
2018-05-31T03:41:36.925Z,14.60
2018-05-31T03:42:42.431Z,15.40
2018-05-31T03:43:47.955Z,15.50
2018-05-31T03:44:53.540Z,16.30
2018-05-31T03:45:58.996Z,16.60
2018-05-31T03:47:05.525Z,17.00
2018-05-31T03:48:10.034Z,16.30
2018-05-31T03:49:15.543Z,16.60
2018-05-31T03:50:21.059Z,17.00
2018-05-31T03:51:26.580Z,17.30
2018-05-31T03:52:32.092Z,17.30
2018-05-31T03:53:38.620Z,17.60
2018-05-31T03:54:43.126Z,17.40
2018-05-31T03:55:48.648Z,16.10
2018-05-31T03:56:54.164Z,16.40
2018-05-31T03:57:59.687Z,16.90
2018-05-31T03:59:05.205Z,16.90
2018-05-31T04:00:11.729Z,17.80
2018-05-31T04:01:16.236Z,19.40
2018-05-31T04:02:21.755Z,19.50
2018-05-31T04:03:27.271Z,17.90
2018-05-31T04:04:32.794Z,18.30
2018-05-31T04:05:38.317Z,16.80
2018-05-31T04:06:44.834Z,16.80
2018-05-31T04:07:49.334Z,17.10
2018-05-31T04:08:54.858Z,17.00
2018-05-31T04:10:00.366Z,16.90
2018-05-31T04:11:05.906Z,16.50
2018-05-31T04:12:11.418Z,15.80
2018-05-31T04:13:17.952Z,15.70
2018-05-31T04:14:22.448Z,15.60
2018-05-31T04:15:27.963Z,15.30
2018-05-31T04:16:33.479Z,15.30
2018-05-31T04:17:39.057Z,16.30
2018-05-31T04:18:44.516Z,16.70
2018-05-31T04:19:51.053Z,16.80
2018-05-31T04:20:55.563Z,16.00
2018-05-31T04:22:01.087Z,16.30
2018-05-31T04:23:06.582Z,16.70
2018-05-31T04:24:12.103Z,16.00
2018-05-31T04:25:17.637Z,16.10
2018-05-31T04:26:24.154Z,15.90
2018-05-31T04:27:28.664Z,15.10
2018-05-31T04:28:34.190Z,16.00
2018-05-31T04:29:39.693Z,15.30
2018-05-31T04:30:45.219Z,15.40
2018-05-31T04:31:50.726Z,16.10
2018-05-31T04:32:57.251Z,15.80
2018-05-31T04:34:01.766Z,16.60
2018-05-31T04:35:07.281Z,16.60
2018-05-31T04:36:12.808Z,16.60
2018-05-31T04:37:18.325Z,15.80
2018-05-31T04:38:23.861Z,15.80
2018-05-31T04:39:30.364Z,15.40
2018-05-31T04:40:34.879Z,15.90
2018-05-31T04:41:40.390Z,15.60
2018-05-31T04:42:45.905Z,15.50
2018-05-31T04:43:51.427Z,15.70
2018-05-31T04:44:56.938Z,15.60
2018-05-31T04:46:03.468Z,15.10
2018-05-31T04:47:07.988Z,15.70
2018-05-31T04:48:13.497Z,16.10
2018-05-31T04:49:19.019Z,16.30
2018-05-31T04:50:24.560Z,15.60
2018-05-31T04:51:30.051Z,17.20
2018-05-31T04:52:36.592Z,16.90
2018-05-31T04:53:41.084Z,17.70
2018-05-31T04:54:46.598Z,16.90
2018-05-31T04:55:52.113Z,17.10
2018-05-31T04:56:57.630Z,17.80
2018-05-31T04:58:03.160Z,17.90
2018-05-31T04:59:09.684Z,19.00
2018-05-31T05:00:14.194Z,19.30
2018-05-31T05:01:19.705Z,19.60
2018-05-31T05:02:25.227Z,18.20
2018-05-31T05:03:30.801Z,18.80
2018-05-31T05:04:36.257Z,18.20
2018-05-31T05:05:42.785Z,19.20
2018-05-31T05:06:47.293Z,18.10
2018-05-31T05:07:52.827Z,18.40
2018-05-31T05:08:58.329Z,19.00
2018-05-31T05:10:03.853Z,18.20
2018-05-31T05:11:09.371Z,17.80
2018-05-31T05:12:15.893Z,17.30
2018-05-31T05:13:20.410Z,17.20
2018-05-31T05:14:25.918Z,18.10
2018-05-31T05:15:31.439Z,18.20
2018-05-31T05:16:36.961Z,17.30
2018-05-31T05:17:42.475Z,18.40
2018-05-31T05:18:49.011Z,18.20
2018-05-31T05:19:53.507Z,17.80
2018-05-31T05:20:59.024Z,17.70
2018-05-31T05:22:04.547Z,18.10
2018-05-31T05:23:10.181Z,17.70
2018-05-31T05:24:15.586Z,17.70
2018-05-31T05:25:22.111Z,17.40
2018-05-31T05:26:26.617Z,17.70
2018-05-31T05:27:32.129Z,17.50
2018-05-31T05:28:37.653Z,17.10
2018-05-31T05:29:43.168Z,16.60
2018-05-31T05:30:48.692Z,17.10
2018-05-31T05:31:55.217Z,17.40
2018-05-31T05:32:59.725Z,17.20
2018-05-31T05:34:05.258Z,16.80
2018-05-31T05:35:10.763Z,16.50
2018-05-31T05:36:16.363Z,17.20
2018-05-31T05:37:21.792Z,17.00
2018-05-31T05:38:28.327Z,16.40
2018-05-31T05:39:32.827Z,17.50
2018-05-31T05:40:38.356Z,17.50
2018-05-31T05:41:43.867Z,18.10
2018-05-31T05:42:49.386Z,17.40
2018-05-31T05:43:54.916Z,17.30
2018-05-31T05:45:01.428Z,18.10
2018-05-31T05:46:05.943Z,17.60
2018-05-31T05:47:11.458Z,17.10
2018-05-31T05:48:16.975Z,17.10
2018-05-31T05:49:22.507Z,16.70
2018-05-31T05:50:28.006Z,16.40
2018-05-31T05:51:34.544Z,16.50
2018-05-31T05:52:39.051Z,15.50
2018-05-31T05:53:44.569Z,16.00
2018-05-31T05:54:50.087Z,15.30
2018-05-31T05:55:55.644Z,15.00
2018-05-31T05:57:01.122Z,15.40
2018-05-31T05:58:07.652Z,14.50
2018-05-31T05:59:12.168Z,14.20
2018-05-31T06:00:17.677Z,13.70
2018-05-31T06:01:23.198Z,13.90
2018-05-31T06:02:28.709Z,13.80
2018-05-31T06:03:34.234Z,13.40
2018-05-31T06:04:40.763Z,12.60
2018-05-31T06:05:45.272Z,12.50
2018-05-31T06:06:50.794Z,11.50
2018-05-31T06:07:56.302Z,12.30
2018-05-31T06:09:01.837Z,12.20
2018-05-31T06:10:07.382Z,11.90
2018-05-31T06:11:13.872Z,12.00
2018-05-31T06:12:18.390Z,12.30
2018-05-31T06:13:23.940Z,12.40
2018-05-31T06:14:29.419Z,11.90
2018-05-31T06:15:34.964Z,11.50
2018-05-31T06:16:40.463Z,12.10
2018-05-31T06:17:46.989Z,11.70
2018-05-31T06:18:51.948Z,11.60
2018-05-31T06:19:57.014Z,11.80
2018-05-31T06:21:02.540Z,12.00
2018-05-31T06:22:08.060Z,11.80
2018-05-31T06:23:13.597Z,11.30
2018-05-31T06:24:20.092Z,11.90
2018-05-31T06:25:24.619Z,11.50
2018-05-31T06:26:30.398Z,11.70
2018-05-31T06:27:35.641Z,11.60
2018-05-31T06:28:41.163Z,11.80
2018-05-31T06:29:46.694Z,11.60
2018-05-31T06:30:53.208Z,12.30
2018-05-31T06:31:57.722Z,11.20
2018-05-31T06:33:03.237Z,11.20
2018-05-31T06:34:08.788Z,11.10
2018-05-31T06:35:14.283Z,10.90
2018-05-31T06:36:19.810Z,11.10
2018-05-31T06:37:26.367Z,11.00
2018-05-31T06:38:30.843Z,11.00
2018-05-31T06:39:36.356Z,10.90
2018-05-31T06:40:41.878Z,11.90
2018-05-31T06:41:47.464Z,12.30
2018-05-31T06:42:52.969Z,12.90
2018-05-31T06:43:59.440Z,12.20
2018-05-31T06:45:03.941Z,11.40
2018-05-31T06:46:09.478Z,12.10
2018-05-31T06:47:14.994Z,11.30
2018-05-31T06:48:20.579Z,11.40
2018-05-31T06:49:26.037Z,10.80
2018-05-31T06:50:32.556Z,11.70
2018-05-31T06:51:37.073Z,11.70
2018-05-31T06:52:42.601Z,11.90
2018-05-31T06:53:48.103Z,12.00
2018-05-31T06:54:53.619Z,10.90
2018-05-31T06:55:59.138Z,11.00
2018-05-31T06:57:05.665Z,10.60
2018-05-31T06:58:10.191Z,10.50
2018-05-31T06:59:15.704Z,10.50
2018-05-31T07:00:21.220Z,10.50
2018-05-31T07:01:26.738Z,10.70
2018-05-31T07:02:32.259Z,10.50
2018-05-31T07:03:38.789Z,10.80
2018-05-31T07:04:43.309Z,10.70
2018-05-31T07:05:48.819Z,11.20
2018-05-31T07:06:54.404Z,11.50
2018-05-31T07:07:59.856Z,11.40
2018-05-31T07:09:05.374Z,11.10
2018-05-31T07:10:11.905Z,11.30
2018-05-31T07:11:16.426Z,10.90
2018-05-31T07:12:21.933Z,10.10
2018-05-31T07:13:27.476Z,9.30
2018-05-31T07:14:32.977Z,9.80
2018-05-31T07:15:38.509Z,10.90
2018-05-31T07:16:45.031Z,10.30
2018-05-31T07:17:49.537Z,10.00
2018-05-31T07:18:55.056Z,10.90
2018-05-31T07:20:00.574Z,11.60
2018-05-31T07:21:06.106Z,11.90
2018-05-31T07:22:11.626Z,11.40
2018-05-31T07:23:18.154Z,11.10
2018-05-31T07:24:22.658Z,11.00
2018-05-31T07:25:28.165Z,11.20
2018-05-31T07:26:33.690Z,11.10
2018-05-31T07:27:39.227Z,11.60
2018-05-31T07:28:44.740Z,12.30
2018-05-31T07:29:51.279Z,11.90
2018-05-31T07:30:55.782Z,10.90
2018-05-31T07:32:01.284Z,11.20
2018-05-31T07:33:06.814Z,10.10
2018-05-31T07:34:12.312Z,10.50
2018-05-31T07:35:17.847Z,10.40
2018-05-31T07:36:24.382Z,9.80
2018-05-31T07:37:28.892Z,11.20
2018-05-31T07:38:34.415Z,11.20
2018-05-31T07:39:39.934Z,10.40
2018-05-31T07:40:45.451Z,10.20
2018-05-31T07:41:50.976Z,10.30
2018-05-31T07:42:57.505Z,10.30
2018-05-31T07:44:02.015Z,9.80
2018-05-31T07:45:07.540Z,9.70
2018-05-31T07:46:13.161Z,9.70
2018-05-31T07:47:18.566Z,10.00
2018-05-31T07:48:24.101Z,10.50
2018-05-31T07:49:30.634Z,10.20
2018-05-31T07:50:35.142Z,10.60
2018-05-31T07:51:40.659Z,9.40
2018-05-31T07:52:46.190Z,9.30
2018-05-31T07:53:51.694Z,9.50
2018-05-31T07:54:57.219Z,9.40
2018-05-31T07:56:03.738Z,9.60
2018-05-31T07:57:08.247Z,9.90
2018-05-31T07:58:13.777Z,10.30
2018-05-31T07:59:19.315Z,9.50
2018-05-31T08:00:24.841Z,9.70
2018-05-31T08:01:30.343Z,9.30
2018-05-31T08:02:36.864Z,10.50
2018-05-31T08:03:41.373Z,10.60
2018-05-31T08:04:46.896Z,10.70
2018-05-31T08:05:52.456Z,9.70
2018-05-31T08:06:57.948Z,10.70
2018-05-31T08:08:03.467Z,10.00
2018-05-31T08:09:09.985Z,9.60
2018-05-31T08:10:14.503Z,10.20
2018-05-31T08:11:20.041Z,9.20
2018-05-31T08:12:25.528Z,9.50
2018-05-31T08:13:31.067Z,9.80
2018-05-31T08:14:36.573Z,9.70
2018-05-31T08:15:43.102Z,9.70
2018-05-31T08:16:47.640Z,9.50
2018-05-31T08:17:53.152Z,10.00
2018-05-31T08:18:58.661Z,9.70
2018-05-31T08:20:04.210Z,9.30
2018-05-31T08:21:09.705Z,9.10
2018-05-31T08:22:16.250Z,9.20
2018-05-31T08:23:20.773Z,10.80
2018-05-31T08:24:26.271Z,10.40
2018-05-31T08:25:31.802Z,10.50
2018-05-31T08:26:37.310Z,9.90
2018-05-31T08:27:42.838Z,10.30
2018-05-31T08:28:49.365Z,10.20
2018-05-31T08:29:53.870Z,9.90
2018-05-31T08:30:59.391Z,10.30
2018-05-31T08:32:04.967Z,10.40
2018-05-31T08:33:10.437Z,10.30
2018-05-31T08:34:15.947Z,9.50
2018-05-31T08:35:22.484Z,10.40
2018-05-31T08:36:27.000Z,10.40
2018-05-31T08:37:32.514Z,10.20
2018-05-31T08:38:38.035Z,9.70
2018-05-31T08:39:43.553Z,9.30
2018-05-31T08:40:49.079Z,9.40
2018-05-31T08:41:55.624Z,9.40
2018-05-31T08:43:00.125Z,8.80
2018-05-31T08:44:05.732Z,9.00
2018-05-31T08:45:11.153Z,9.90
2018-05-31T08:46:16.699Z,9.20
2018-05-31T08:47:22.208Z,9.00
2018-05-31T08:48:28.774Z,8.90
2018-05-31T08:49:33.248Z,9.40
2018-05-31T08:50:38.760Z,9.70
2018-05-31T08:51:44.279Z,10.00
2018-05-31T08:52:49.845Z,9.90
2018-05-31T08:53:55.328Z,8.80
2018-05-31T08:55:01.887Z,10.00
2018-05-31T08:56:06.379Z,9.60
2018-05-31T08:57:11.904Z,9.40
2018-05-31T08:58:17.431Z,9.70
2018-05-31T08:59:22.924Z,9.90
2018-05-31T09:00:28.451Z,9.50
2018-05-31T09:01:34.979Z,9.70
2018-05-31T09:02:39.495Z,9.90
2018-05-31T09:03:45.045Z,9.70
2018-05-31T09:04:50.541Z,9.80
2018-05-31T09:05:56.056Z,10.10
2018-05-31T09:07:01.585Z,9.40
2018-05-31T09:08:08.117Z,9.80
2018-05-31T09:09:12.629Z,9.60
2018-05-31T09:10:18.157Z,9.40
2018-05-31T09:11:23.667Z,9.50
2018-05-31T09:12:29.181Z,9.60
2018-05-31T09:13:34.727Z,10.00
2018-05-31T09:14:41.252Z,9.00
2018-05-31T09:15:45.758Z,8.70
2018-05-31T09:16:51.282Z,8.70
2018-05-31T09:17:56.803Z,9.50
2018-05-31T09:19:02.325Z,9.00
2018-05-31T09:20:07.845Z,9.50
2018-05-31T09:21:14.385Z,9.50
2018-05-31T09:22:18.906Z,8.80
2018-05-31T09:23:24.405Z,9.30
2018-05-31T09:24:29.927Z,9.60
2018-05-31T09:25:35.461Z,9.30
2018-05-31T09:26:40.958Z,8.90
2018-05-31T09:27:47.547Z,9.60
2018-05-31T09:28:52.018Z,10.10
2018-05-31T09:29:57.519Z,9.60
2018-05-31T09:31:03.042Z,9.60
2018-05-31T09:32:08.578Z,9.10
2018-05-31T09:33:14.093Z,10.00
2018-05-31T09:34:20.623Z,10.50
2018-05-31T09:35:25.146Z,10.70
2018-05-31T09:36:30.668Z,9.60
2018-05-31T09:37:36.193Z,10.90
2018-05-31T09:38:41.693Z,10.20
2018-05-31T09:39:47.218Z,9.80
2018-05-31T09:40:53.768Z,9.90
2018-05-31T09:41:58.358Z,9.20
2018-05-31T09:43:03.779Z,9.00
2018-05-31T09:44:09.310Z,9.30
2018-05-31T09:45:14.838Z,10.20
2018-05-31T09:46:20.374Z,8.90
2018-05-31T09:47:26.882Z,9.10
2018-05-31T09:48:31.399Z,9.50
2018-05-31T09:49:36.946Z,9.20
2018-05-31T09:50:42.441Z,9.30
2018-05-31T09:51:47.965Z,9.50
2018-05-31T09:52:53.489Z,10.00
2018-05-31T09:54:00.009Z,9.40
2018-05-31T09:55:04.523Z,8.20
2018-05-31T09:56:10.076Z,9.40
2018-05-31T09:57:15.576Z,8.80
2018-05-31T09:58:21.093Z,8.50
2018-05-31T09:59:26.603Z,9.00
2018-05-31T10:00:33.139Z,9.60
2018-05-31T10:01:37.645Z,9.60
2018-05-31T10:02:43.191Z,9.20
2018-05-31T10:03:48.694Z,9.10
2018-05-31T10:04:54.211Z,8.90
2018-05-31T10:05:59.759Z,8.40
2018-05-31T10:07:06.270Z,10.50
2018-05-31T10:08:10.778Z,9.80
2018-05-31T10:09:16.307Z,9.70
2018-05-31T10:10:21.838Z,9.10
2018-05-31T10:11:27.345Z,9.30
2018-05-31T10:12:32.878Z,9.20
2018-05-31T10:13:39.413Z,9.20
2018-05-31T10:14:43.910Z,9.70
2018-05-31T10:15:49.446Z,9.60
2018-05-31T10:16:54.982Z,9.50
2018-05-31T10:18:00.489Z,10.00
2018-05-31T10:19:06.008Z,9.40
2018-05-31T10:20:12.605Z,9.70
2018-05-31T10:21:17.051Z,9.40
2018-05-31T10:22:22.571Z,10.00
2018-05-31T10:23:28.120Z,9.70
2018-05-31T10:24:33.612Z,9.80
2018-05-31T10:25:39.139Z,9.70
2018-05-31T10:26:45.664Z,9.90
2018-05-31T10:27:50.182Z,10.20
2018-05-31T10:28:55.701Z,10.50
2018-05-31T10:30:01.227Z,10.20
2018-05-31T10:31:06.752Z,10.30
2018-05-31T10:32:12.281Z,10.00
2018-05-31T10:33:18.852Z,10.20
2018-05-31T10:34:23.301Z,9.40
2018-05-31T10:35:28.830Z,9.60
2018-05-31T10:36:34.344Z,9.80
2018-05-31T10:37:39.901Z,10.90
2018-05-31T10:38:45.400Z,9.90
2018-05-31T10:39:51.939Z,9.70
2018-05-31T10:40:56.449Z,10.10
2018-05-31T10:42:01.966Z,9.90
2018-05-31T10:43:07.495Z,9.60
2018-05-31T10:44:13.034Z,9.10
2018-05-31T10:45:18.663Z,9.00
2018-05-31T10:46:25.077Z,9.50
2018-05-31T10:47:29.588Z,9.00
2018-05-31T10:48:35.102Z,8.90
2018-05-31T10:49:40.627Z,8.80
2018-05-31T10:50:46.150Z,9.10
2018-05-31T10:51:51.730Z,10.10
2018-05-31T10:52:58.217Z,9.80
2018-05-31T10:54:02.726Z,9.50
2018-05-31T10:55:08.233Z,9.10
2018-05-31T10:56:13.781Z,10.00
2018-05-31T10:57:19.281Z,9.60
2018-05-31T10:58:24.839Z,10.10
2018-05-31T10:59:31.341Z,10.60
2018-05-31T11:00:35.829Z,10.30
2018-05-31T11:01:41.384Z,10.20
2018-05-31T11:02:46.891Z,9.50
2018-05-31T11:03:52.438Z,10.00
2018-05-31T11:04:57.937Z,9.60
2018-05-31T11:06:04.474Z,9.40
2018-05-31T11:07:09.000Z,8.80
2018-05-31T11:08:14.499Z,9.00
2018-05-31T11:09:20.032Z,8.90
2018-05-31T11:10:25.591Z,9.20
2018-05-31T11:11:31.146Z,8.70
2018-05-31T11:12:37.633Z,9.10
2018-05-31T11:13:42.126Z,8.70
2018-05-31T11:14:47.676Z,9.00
2018-05-31T11:15:53.179Z,8.10
2018-05-31T11:16:58.716Z,8.60
2018-05-31T11:18:04.216Z,8.70
2018-05-31T11:19:10.748Z,8.20
2018-05-31T11:20:15.258Z,8.40
2018-05-31T11:21:20.795Z,8.70
2018-05-31T11:22:26.305Z,8.30
2018-05-31T11:23:31.838Z,8.70
2018-05-31T11:24:37.346Z,8.90
2018-05-31T11:25:43.893Z,8.30
2018-05-31T11:26:48.402Z,8.90
2018-05-31T11:27:53.904Z,8.50
2018-05-31T11:28:59.464Z,8.90
2018-05-31T11:30:05.014Z,8.70
2018-05-31T11:31:10.491Z,8.70
2018-05-31T11:32:17.021Z,8.90
2018-05-31T11:33:21.529Z,8.50
2018-05-31T11:34:27.067Z,9.10
2018-05-31T11:35:32.601Z,8.80
2018-05-31T11:36:38.140Z,11.00
2018-05-31T11:37:43.630Z,8.70
2018-05-31T11:38:50.164Z,9.40
2018-05-31T11:39:54.700Z,9.10
2018-05-31T11:41:00.218Z,8.90
2018-05-31T11:42:05.719Z,8.40
2018-05-31T11:43:11.238Z,8.90
2018-05-31T11:44:16.764Z,9.10
2018-05-31T11:45:23.295Z,8.70
2018-05-31T11:46:27.820Z,9.30
2018-05-31T11:47:33.348Z,8.80
2018-05-31T11:48:38.899Z,8.40
2018-05-31T11:49:44.388Z,8.60
2018-05-31T11:50:49.910Z,8.30
2018-05-31T11:51:56.488Z,8.40
2018-05-31T11:53:00.948Z,8.50
2018-05-31T11:54:06.467Z,8.40
2018-05-31T11:55:12.008Z,8.30
2018-05-31T11:56:17.533Z,8.50
2018-05-31T11:57:23.040Z,8.20
2018-05-31T11:58:29.581Z,8.60
2018-05-31T11:59:34.098Z,8.40
2018-05-31T12:00:39.621Z,8.50
2018-05-31T12:01:45.190Z,8.20
2018-05-31T12:02:50.656Z,7.80
2018-05-31T12:03:56.181Z,7.90
2018-05-31T12:05:02.719Z,7.80
2018-05-31T12:06:07.229Z,7.20
2018-05-31T12:07:12.761Z,7.00
2018-05-31T12:08:18.393Z,6.80
2018-05-31T12:09:23.806Z,6.90
2018-05-31T12:10:29.337Z,7.40
2018-05-31T12:11:35.860Z,7.30
2018-05-31T12:12:40.368Z,6.80
2018-05-31T12:13:45.907Z,6.60
2018-05-31T12:14:51.441Z,6.70
2018-05-31T12:15:56.953Z,6.90
2018-05-31T12:17:02.473Z,6.50
2018-05-31T12:18:09.004Z,6.40
2018-05-31T12:19:13.513Z,7.00
2018-05-31T12:20:19.060Z,6.60
2018-05-31T12:21:24.569Z,6.70
2018-05-31T12:22:30.105Z,6.90
2018-05-31T12:23:35.607Z,6.50
2018-05-31T12:24:42.151Z,6.90
2018-05-31T12:25:46.644Z,6.30
2018-05-31T12:26:52.197Z,6.80
2018-05-31T12:27:57.697Z,6.70
2018-05-31T12:29:03.224Z,6.60
2018-05-31T12:30:08.763Z,6.20
2018-05-31T12:31:15.301Z,6.50
2018-05-31T12:32:19.788Z,6.80
2018-05-31T12:33:25.325Z,6.90
2018-05-31T12:34:30.842Z,6.60
2018-05-31T12:35:36.390Z,6.70
2018-05-31T12:36:41.895Z,6.60
2018-05-31T12:37:48.472Z,6.40
2018-05-31T12:38:52.945Z,6.40
2018-05-31T12:39:58.455Z,6.80
2018-05-31T12:41:03.990Z,6.90
2018-05-31T12:42:09.506Z,6.90
2018-05-31T12:43:15.032Z,6.70
2018-05-31T12:44:21.554Z,6.70
2018-05-31T12:45:26.087Z,6.80
2018-05-31T12:46:31.605Z,6.20
2018-05-31T12:47:37.122Z,7.10
2018-05-31T12:48:42.630Z,6.70
2018-05-31T12:49:48.160Z,6.80
2018-05-31T12:50:54.694Z,6.80
2018-05-31T12:51:59.215Z,6.60
2018-05-31T12:53:04.721Z,7.00
2018-05-31T12:54:10.257Z,6.80
2018-05-31T12:55:15.780Z,7.40
2018-05-31T12:56:21.293Z,6.50
2018-05-31T12:57:27.825Z,6.70
2018-05-31T12:58:32.330Z,6.30
2018-05-31T12:59:37.865Z,6.50
2018-05-31T13:00:43.407Z,6.50
2018-05-31T13:01:48.922Z,7.00
2018-05-31T13:02:54.442Z,7.00
2018-05-31T13:04:00.959Z,6.60
2018-05-31T13:05:05.477Z,6.50
2018-05-31T13:06:10.994Z,6.60
2018-05-31T13:07:16.529Z,7.10
2018-05-31T13:08:22.053Z,6.50
2018-05-31T13:09:27.563Z,6.90
2018-05-31T13:10:34.211Z,7.00
2018-05-31T13:11:38.635Z,7.10
2018-05-31T13:12:44.145Z,6.50
2018-05-31T13:13:49.651Z,7.00
2018-05-31T13:14:55.183Z,7.10
2018-05-31T13:16:00.712Z,6.80
2018-05-31T13:17:07.235Z,7.00
2018-05-31T13:18:11.747Z,6.90
2018-05-31T13:19:17.272Z,6.70
2018-05-31T13:20:22.788Z,7.30
2018-05-31T13:21:28.308Z,6.70
2018-05-31T13:22:33.848Z,7.10
2018-05-31T13:23:40.375Z,7.10
2018-05-31T13:24:44.894Z,6.40
2018-05-31T13:25:50.418Z,6.70
2018-05-31T13:26:55.920Z,6.80
2018-05-31T13:28:01.439Z,7.40
2018-05-31T13:29:06.975Z,7.10
2018-05-31T13:30:13.523Z,7.20
2018-05-31T13:31:18.008Z,6.90
2018-05-31T13:32:23.531Z,6.90
2018-05-31T13:33:29.061Z,6.90
2018-05-31T13:34:34.573Z,7.00
2018-05-31T13:35:40.107Z,6.50
2018-05-31T13:36:46.637Z,6.70
2018-05-31T13:37:51.145Z,6.50
2018-05-31T13:38:56.672Z,6.70
2018-05-31T13:40:02.177Z,7.20
2018-05-31T13:41:07.709Z,6.40
2018-05-31T13:42:13.238Z,6.80
2018-05-31T13:43:19.789Z,6.50
2018-05-31T13:44:24.264Z,6.60
2018-05-31T13:45:29.794Z,6.20
2018-05-31T13:46:35.308Z,5.90
2018-05-31T13:47:40.853Z,5.40
2018-05-31T13:48:46.381Z,5.50
2018-05-31T13:49:52.894Z,5.80
2018-05-31T13:50:57.406Z,5.40
2018-05-31T13:52:02.934Z,5.70
2018-05-31T13:53:08.452Z,5.70
2018-05-31T13:54:13.972Z,5.20
2018-05-31T13:55:19.507Z,5.70
2018-05-31T13:56:26.040Z,5.50
2018-05-31T13:57:30.529Z,5.10
2018-05-31T13:58:36.060Z,5.10
2018-05-31T13:59:41.593Z,4.40
2018-05-31T14:00:47.114Z,4.60
2018-05-31T14:01:52.756Z,4.90
2018-05-31T14:02:59.151Z,4.40
2018-05-31T14:04:03.686Z,4.40
2018-05-31T14:05:09.183Z,4.60
2018-05-31T14:06:14.713Z,4.70
2018-05-31T14:07:20.248Z,4.60
2018-05-31T14:08:25.797Z,4.00
2018-05-31T14:09:32.339Z,3.70
2018-05-31T14:10:36.797Z,3.80
2018-05-31T14:11:42.331Z,3.70
2018-05-31T14:12:47.838Z,3.90
2018-05-31T14:13:53.353Z,3.80
2018-05-31T14:14:58.863Z,3.70